»·PEaware :: GSA572 KSLC-KGJT

GSA572 :: KSLC-KGJT

FLIGHT INFORMATION

Flight Status: Arrived
Operator:
Global Sim Alliance
More flights by this operator :: More flights under this callsign
Pilot: Anonymous 8799 (8799)
Aircraft: BOEING 737-800
(B738)
More flights by this aircraft type
Origin: KSLC Salt Lake City Intl
United States
Destination: KGJT Walker
United States
More flights between these airports :: More routes between these airports
Route: LEETZ6 MTU JNC
File this flight plan on PilotEdge
Remarks:
Altitude:
(Current/Filed)
31,000ft
Speed:
(Current/Filed)
450kts
Departed: 29-Sep-17 01:20 PM
Arrived: 29-Sep-17 01:58 PM
Distance/Time
Traveled:
187nm/0:38
Distance/Time
To Go:
Arrived

Flight Plot

Page will automatically refresh every two minutes.

Flight plan parsing failed; only flown route is shown


Map Options




Map Legend


Flown Route
Filed Route
Departure Airport
Arrival Airport
Navaid (VOR, NDB)
Fix

Horizontal Profiles

Position Reports

Time Latitude Longitude Heading Altitude Ground
Speed
29-Sep-17 12:45 40.789022 -111.981904 135 4235ft 0kts
29-Sep-17 12:46 40.789022 -111.981904 135 4235ft 0kts
29-Sep-17 12:47 40.789022 -111.981904 135 4235ft 0kts
29-Sep-17 12:48 40.789022 -111.981904 135 4235ft 0kts
29-Sep-17 12:49 40.789022 -111.981904 135 4235ft 0kts
29-Sep-17 12:50 40.789022 -111.981904 135 4235ft 0kts
29-Sep-17 12:51 40.789022 -111.981904 135 4235ft 0kts
29-Sep-17 12:52 40.789022 -111.981904 135 4235ft 0kts
29-Sep-17 12:53 40.789022 -111.981904 135 4235ft 0kts
29-Sep-17 12:54 40.789022 -111.981904 135 4235ft 0kts
29-Sep-17 12:55 40.789022 -111.981904 135 4235ft 0kts
29-Sep-17 12:56 40.789022 -111.981904 135 4235ft 0kts
29-Sep-17 12:57 40.789240 -111.982193 134 4235ft 2kts
29-Sep-17 12:58 40.789394 -111.982655 57 4235ft 1kts
29-Sep-17 12:59 40.789142 -111.982793 331 4235ft 0kts
29-Sep-17 13:00 40.789050 -111.982797 24 4235ft 0kts
29-Sep-17 13:01 40.789050 -111.982797 24 4235ft 0kts
29-Sep-17 13:02 40.789120 -111.982778 9 4235ft 1kts
29-Sep-17 13:03 40.790312 -111.982926 353 4235ft 0kts
29-Sep-17 13:04 40.790312 -111.982926 353 4235ft 0kts
29-Sep-17 13:05 40.791716 -111.982340 71 4235ft 11kts
29-Sep-17 13:06 40.791999 -111.978531 85 4235ft 8kts
29-Sep-17 13:07 40.793095 -111.977382 58 4235ft 0kts
29-Sep-17 13:08 40.796192 -111.977803 340 4235ft 16kts
29-Sep-17 13:09 40.799607 -111.978202 354 4235ft 15kts
29-Sep-17 13:10 40.804070 -111.978419 339 4235ft 17kts
29-Sep-17 13:11 40.805888 -111.979736 353 4235ft 0kts
29-Sep-17 13:12 40.805888 -111.979736 353 4235ft 0kts
29-Sep-17 13:13 40.805888 -111.979736 353 4235ft 0kts
29-Sep-17 13:14 40.805888 -111.979736 353 4235ft 0kts
29-Sep-17 13:15 40.805888 -111.979736 353 4235ft 0kts
29-Sep-17 13:16 40.805888 -111.979736 353 4235ft 0kts
29-Sep-17 13:17 40.805888 -111.979736 353 4235ft 0kts
29-Sep-17 13:18 40.805888 -111.979736 353 4235ft 0kts
29-Sep-17 13:19 40.806979 -111.979597 25 4235ft 9kts
29-Sep-17 13:20 40.807406 -111.978870 82 4235ft 0kts
29-Sep-17 13:21 40.807406 -111.978870 82 4235ft 0kts
29-Sep-17 13:22 40.807406 -111.978870 82 4235ft 0kts
29-Sep-17 13:23 40.807453 -111.978390 84 4235ft 8kts
29-Sep-17 13:24 40.794631 -111.975428 175 4260ft 170kts
29-Sep-17 13:25 40.743230 -112.004537 240 6558ft 291kts
29-Sep-17 13:26 40.758611 -112.102254 317 10948ft 325kts
29-Sep-17 13:27 40.835610 -112.174423 318 15124ft 341kts
29-Sep-17 13:28 40.919343 -112.236085 354 18586ft 374kts
29-Sep-17 13:29 41.007767 -112.176814 54 21966ft 395kts
29-Sep-17 13:30 41.017367 -112.036253 112 24553ft 423kts
29-Sep-17 13:31 40.953081 -111.908888 134 26999ft 428kts
29-Sep-17 13:32 40.872885 -111.792507 134 29472ft 433kts
29-Sep-17 13:33 40.804930 -111.662672 121 31155ft 449kts
29-Sep-17 13:34 40.743130 -111.514846 120 31192ft 481kts
29-Sep-17 13:35 40.683994 -111.373959 120 31206ft 491kts
29-Sep-17 13:36 40.619856 -111.221718 121 31219ft 490kts
29-Sep-17 13:37 40.554062 -111.066324 121 31229ft 490kts
29-Sep-17 13:38 40.488314 -110.911629 122 31244ft 488kts
29-Sep-17 13:39 40.422400 -110.757550 122 31251ft 486kts
29-Sep-17 13:40 40.356416 -110.604163 122 31249ft 487kts
29-Sep-17 13:41 40.290250 -110.451118 122 31250ft 487kts
29-Sep-17 13:42 40.226737 -110.304875 123 31238ft 486kts
29-Sep-17 13:43 40.160129 -110.152683 125 31219ft 483kts
29-Sep-17 13:44 40.077046 -110.037301 140 30296ft 414kts
29-Sep-17 13:45 39.993571 -109.932887 140 28332ft 424kts
29-Sep-17 13:46 39.909560 -109.828481 139 26355ft 427kts
29-Sep-17 13:47 39.828851 -109.728482 139 24443ft 410kts
29-Sep-17 13:48 39.748015 -109.628731 139 22540ft 397kts
29-Sep-17 13:49 39.669490 -109.532130 139 20692ft 386kts
29-Sep-17 13:50 39.593120 -109.438501 138 18879ft 375kts
29-Sep-17 13:51 39.521933 -109.351503 138 17051ft 365kts
29-Sep-17 13:52 39.451265 -109.265385 138 15391ft 354kts
29-Sep-17 13:53 39.383989 -109.183557 138 13640ft 321kts
29-Sep-17 13:54 39.321735 -109.104430 124 12071ft 307kts
29-Sep-17 13:55 39.294616 -109.003501 109 10392ft 295kts
29-Sep-17 13:56 39.272101 -108.905548 109 10067ft 287kts
29-Sep-17 13:57 39.256182 -108.805536 89 10072ft 291kts
29-Sep-17 13:58 39.230460 -108.713394 132 9216ft 286kts
29-Sep-17 13:59 39.186822 -108.638804 126 6631ft 251kts
29-Sep-17 14:00 39.152761 -108.576680 125 5432ft 179kts
29-Sep-17 14:01 39.129370 -108.533915 126 4807ft 70kts
29-Sep-17 14:02 39.126525 -108.529989 240 4807ft 0kts

Navigation Log

Ident Type
Flight plan parsing failed, navigation log unavailable